sensor_id;sensor_type;location;lat;lon;timestamp;pressure;altitude;pressure_sealevel;temperature;humidity
28628;BME280;15815;46.760;19.604;2022-09-13T00:00:55;100209.53;;;13.50;68.37
28628;BME280;15815;46.760;19.604;2022-09-13T00:03:21;100199.72;;;13.32;69.08
28628;BME280;15815;46.760;19.604;2022-09-13T00:05:48;100202.19;;;13.29;69.33
28628;BME280;15815;46.760;19.604;2022-09-13T00:08:14;100204.00;;;13.43;68.40
28628;BME280;15815;46.760;19.604;2022-09-13T00:10:42;100206.75;;;13.47;67.54
28628;BME280;15815;46.760;19.604;2022-09-13T00:13:09;100207.81;;;13.29;69.01
28628;BME280;15815;46.760;19.604;2022-09-13T00:15:36;100204.22;;;12.98;70.15
28628;BME280;15815;46.760;19.604;2022-09-13T00:18:02;100200.91;;;13.04;70.16
28628;BME280;15815;46.760;19.604;2022-09-13T00:20:27;100209.94;;;12.91;70.91
28628;BME280;15815;46.760;19.604;2022-09-13T00:22:53;100204.63;;;12.97;71.24
28628;BME280;15815;46.760;19.604;2022-09-13T00:25:19;100205.53;;;13.21;70.00
28628;BME280;15815;46.760;19.604;2022-09-13T00:27:44;100205.63;;;13.10;70.00
28628;BME280;15815;46.760;19.604;2022-09-13T00:30:11;100202.56;;;13.01;69.55
28628;BME280;15815;46.760;19.604;2022-09-13T00:32:36;100206.69;;;12.93;70.11
28628;BME280;15815;46.760;19.604;2022-09-13T00:35:03;100198.78;;;12.81;70.32
28628;BME280;15815;46.760;19.604;2022-09-13T00:37:29;100202.03;;;13.10;68.72
28628;BME280;15815;46.760;19.604;2022-09-13T00:39:56;100197.75;;;12.67;70.07
28628;BME280;15815;46.760;19.604;2022-09-13T00:42:26;100204.84;;;12.79;69.98
28628;BME280;15815;46.760;19.604;2022-09-13T00:45:16;100203.41;;;12.98;69.33
28628;BME280;15815;46.760;19.604;2022-09-13T00:47:49;100200.97;;;12.69;70.88
28628;BME280;15815;46.760;19.604;2022-09-13T00:50:38;100209.09;;;12.64;70.38
28628;BME280;15815;46.760;19.604;2022-09-13T00:53:11;100201.50;;;12.57;71.20
28628;BME280;15815;46.760;19.604;2022-09-13T00:55:45;100204.81;;;12.49;71.89
28628;BME280;15815;46.760;19.604;2022-09-13T00:58:20;100215.16;;;12.62;70.14
28628;BME280;15815;46.760;19.604;2022-09-13T01:00:47;100203.88;;;12.59;70.56
28628;BME280;15815;46.760;19.604;2022-09-13T01:03:16;100208.47;;;12.80;69.16
28628;BME280;15815;46.760;19.604;2022-09-13T01:05:49;100209.50;;;12.62;69.22
28628;BME280;15815;46.760;19.604;2022-09-13T01:08:16;100211.06;;;12.29;70.56
28628;BME280;15815;46.760;19.604;2022-09-13T01:10:49;100211.44;;;12.35;70.91
28628;BME280;15815;46.760;19.604;2022-09-13T01:13:18;100215.56;;;12.23;71.64
28628;BME280;15815;46.760;19.604;2022-09-13T01:15:45;100210.34;;;12.22;71.96
28628;BME280;15815;46.760;19.604;2022-09-13T01:18:10;100216.38;;;12.24;70.90
28628;BME280;15815;46.760;19.604;2022-09-13T01:31:48;100212.75;;;12.23;71.02
28628;BME280;15815;46.760;19.604;2022-09-13T01:40:03;100210.09;;;12.47;70.23
28628;BME280;15815;46.760;19.604;2022-09-13T01:48:25;100206.59;;;12.32;69.69
28628;BME280;15815;46.760;19.604;2022-09-13T01:51:04;100209.28;;;12.09;70.63
28628;BME280;15815;46.760;19.604;2022-09-13T01:53:43;100201.69;;;12.05;70.86
28628;BME280;15815;46.760;19.604;2022-09-13T01:56:21;100200.84;;;12.09;70.33
28628;BME280;15815;46.760;19.604;2022-09-13T01:58:58;100207.53;;;11.81;70.70
28628;BME280;15815;46.760;19.604;2022-09-13T02:01:39;100204.69;;;11.77;71.57
28628;BME280;15815;46.760;19.604;2022-09-13T02:04:10;100209.56;;;11.73;71.92
28628;BME280;15815;46.760;19.604;2022-09-13T02:06:45;100208.41;;;11.67;71.62
28628;BME280;15815;46.760;19.604;2022-09-13T02:09:19;100210.94;;;12.06;69.92
28628;BME280;15815;46.760;19.604;2022-09-13T02:11:49;100204.72;;;11.73;70.76
28628;BME280;15815;46.760;19.604;2022-09-13T02:14:43;100204.34;;;11.79;71.12
28628;BME280;15815;46.760;19.604;2022-09-13T02:17:14;100195.00;;;11.89;70.13
28628;BME280;15815;46.760;19.604;2022-09-13T02:19:48;100202.06;;;12.07;69.21
28628;BME280;15815;46.760;19.604;2022-09-13T02:22:20;100195.81;;;11.86;68.72
28628;BME280;15815;46.760;19.604;2022-09-13T02:24:52;100194.03;;;11.58;70.51
28628;BME280;15815;46.760;19.604;2022-09-13T02:27:26;100199.50;;;11.79;70.28
28628;BME280;15815;46.760;19.604;2022-09-13T02:30:00;100200.16;;;11.42;72.06
28628;BME280;15815;46.760;19.604;2022-09-13T02:32:32;100192.88;;;11.48;71.96
28628;BME280;15815;46.760;19.604;2022-09-13T02:35:21;100199.13;;;11.70;70.48
28628;BME280;15815;46.760;19.604;2022-09-13T02:38:23;100202.06;;;11.56;70.22
28628;BME280;15815;46.760;19.604;2022-09-13T02:40:59;100194.06;;;11.54;70.01
28628;BME280;15815;46.760;19.604;2022-09-13T02:43:33;100201.22;;;11.03;72.42
28628;BME280;15815;46.760;19.604;2022-09-13T02:48:51;100193.94;;;11.09;73.08
28628;BME280;15815;46.760;19.604;2022-09-13T02:53:52;100188.00;;;11.56;70.02
28628;BME280;15815;46.760;19.604;2022-09-13T02:56:33;100184.84;;;11.46;70.40
28628;BME280;15815;46.760;19.604;2022-09-13T02:59:19;100188.47;;;10.84;73.28
28628;BME280;15815;46.760;19.604;2022-09-13T03:02:08;100189.63;;;10.91;73.34
28628;BME280;15815;46.760;19.604;2022-09-13T03:04:35;100193.28;;;10.84;73.39
28628;BME280;15815;46.760;19.604;2022-09-13T03:07:01;100183.59;;;10.92;72.77
28628;BME280;15815;46.760;19.604;2022-09-13T03:09:29;100185.09;;;11.11;70.24
28628;BME280;15815;46.760;19.604;2022-09-13T03:12:11;100188.72;;;11.08;71.48
28628;BME280;15815;46.760;19.604;2022-09-13T03:15:29;100180.00;;;10.88;71.63
28628;BME280;15815;46.760;19.604;2022-09-13T03:20:42;100178.44;;;10.83;72.91
28628;BME280;15815;46.760;19.604;2022-09-13T03:23:26;100189.19;;;10.99;72.28
28628;BME280;15815;46.760;19.604;2022-09-13T03:31:31;100191.75;;;10.69;72.97
28628;BME280;15815;46.760;19.604;2022-09-13T03:33:58;100191.69;;;10.79;72.77
28628;BME280;15815;46.760;19.604;2022-09-13T03:36:40;100186.16;;;10.62;72.12
28628;BME280;15815;46.760;19.604;2022-09-13T03:39:44;100185.31;;;10.72;72.20
28628;BME280;15815;46.760;19.604;2022-09-13T03:42:25;100182.94;;;10.63;72.72
28628;BME280;15815;46.760;19.604;2022-09-13T03:44:54;100190.16;;;10.61;71.86
28628;BME280;15815;46.760;19.604;2022-09-13T03:47:23;100186.53;;;10.71;71.14
28628;BME280;15815;46.760;19.604;2022-09-13T03:49:51;100177.56;;;10.90;69.72
28628;BME280;15815;46.760;19.604;2022-09-13T03:52:17;100174.72;;;11.01;68.63
28628;BME280;15815;46.760;19.604;2022-09-13T03:54:43;100169.25;;;10.72;69.74
28628;BME280;15815;46.760;19.604;2022-09-13T03:57:19;100168.22;;;10.31;70.72
28628;BME280;15815;46.760;19.604;2022-09-13T03:59:55;100175.06;;;10.15;72.61
28628;BME280;15815;46.760;19.604;2022-09-13T04:02:23;100188.69;;;10.28;71.26
28628;BME280;15815;46.760;19.604;2022-09-13T04:04:49;100171.44;;;10.26;70.97
28628;BME280;15815;46.760;19.604;2022-09-13T04:07:22;100178.25;;;10.10;72.42
28628;BME280;15815;46.760;19.604;2022-09-13T04:09:47;100175.00;;;10.37;70.96
28628;BME280;15815;46.760;19.604;2022-09-13T04:12:14;100181.06;;;10.28;70.37
28628;BME280;15815;46.760;19.604;2022-09-13T04:14:40;100179.84;;;10.11;71.43
28628;BME280;15815;46.760;19.604;2022-09-13T04:17:07;100176.69;;;10.02;71.82
28628;BME280;15815;46.760;19.604;2022-09-13T04:19:33;100167.84;;;10.04;71.48
28628;BME280;15815;46.760;19.604;2022-09-13T04:21:58;100174.56;;;10.49;70.16
28628;BME280;15815;46.760;19.604;2022-09-13T04:24:28;100180.94;;;10.60;69.08
28628;BME280;15815;46.760;19.604;2022-09-13T04:26:54;100177.44;;;10.28;70.64
28628;BME280;15815;46.760;19.604;2022-09-13T04:29:21;100179.81;;;10.43;70.05
28628;BME280;15815;46.760;19.604;2022-09-13T04:31:48;100178.63;;;10.34;70.54
28628;BME280;15815;46.760;19.604;2022-09-13T04:34:13;100183.44;;;10.33;70.72
28628;BME280;15815;46.760;19.604;2022-09-13T04:36:39;100183.84;;;10.32;71.61
28628;BME280;15815;46.760;19.604;2022-09-13T04:39:05;100190.16;;;10.61;70.69
28628;BME280;15815;46.760;19.604;2022-09-13T04:41:31;100192.16;;;10.71;70.86
28628;BME280;15815;46.760;19.604;2022-09-13T04:43:57;100188.94;;;10.69;70.29
28628;BME280;15815;46.760;19.604;2022-09-13T04:46:23;100188.53;;;10.67;70.85
28628;BME280;15815;46.760;19.604;2022-09-13T04:48:49;100185.22;;;10.90;70.06
28628;BME280;15815;46.760;19.604;2022-09-13T04:51:15;100195.56;;;11.07;69.59
28628;BME280;15815;46.760;19.604;2022-09-13T04:53:42;100194.09;;;10.81;70.80
28628;BME280;15815;46.760;19.604;2022-09-13T04:56:08;100195.41;;;10.59;72.01
28628;BME280;15815;46.760;19.604;2022-09-13T04:58:33;100194.56;;;10.69;72.29
28628;BME280;15815;46.760;19.604;2022-09-13T05:01:07;100185.56;;;11.02;71.64
28628;BME280;15815;46.760;19.604;2022-09-13T05:03:34;100201.41;;;11.37;70.69
28628;BME280;15815;46.760;19.604;2022-09-13T05:06:04;100190.97;;;11.34;70.47
28628;BME280;15815;46.760;19.604;2022-09-13T05:08:30;100194.66;;;11.24;70.26
28628;BME280;15815;46.760;19.604;2022-09-13T05:10:55;100191.41;;;11.29;70.10
28628;BME280;15815;46.760;19.604;2022-09-13T05:13:21;100188.53;;;11.36;70.68
28628;BME280;15815;46.760;19.604;2022-09-13T05:15:46;100197.28;;;11.53;70.09
28628;BME280;15815;46.760;19.604;2022-09-13T05:18:12;100201.50;;;11.75;69.38
28628;BME280;15815;46.760;19.604;2022-09-13T05:20:37;100210.44;;;12.15;68.19
28628;BME280;15815;46.760;19.604;2022-09-13T05:23:02;100217.03;;;12.38;67.72
28628;BME280;15815;46.760;19.604;2022-09-13T05:25:27;100217.75;;;12.46;66.85
28628;BME280;15815;46.760;19.604;2022-09-13T05:27:53;100214.53;;;12.44;67.13
28628;BME280;15815;46.760;19.604;2022-09-13T05:30:18;100214.13;;;12.46;67.83
28628;BME280;15815;46.760;19.604;2022-09-13T05:32:43;100210.53;;;12.42;68.64
28628;BME280;15815;46.760;19.604;2022-09-13T05:35:09;100222.06;;;12.54;68.32
28628;BME280;15815;46.760;19.604;2022-09-13T05:37:34;100219.09;;;12.68;68.11
28628;BME280;15815;46.760;19.604;2022-09-13T05:39:59;100219.84;;;12.73;68.41
28628;BME280;15815;46.760;19.604;2022-09-13T05:42:25;100218.91;;;12.83;68.52
28628;BME280;15815;46.760;19.604;2022-09-13T05:44:50;100223.56;;;12.96;68.14
28628;BME280;15815;46.760;19.604;2022-09-13T05:47:15;100214.06;;;13.14;68.17
28628;BME280;15815;46.760;19.604;2022-09-13T05:49:41;100219.53;;;13.55;66.74
28628;BME280;15815;46.760;19.604;2022-09-13T05:52:06;100211.47;;;13.80;66.09
28628;BME280;15815;46.760;19.604;2022-09-13T05:54:31;100210.34;;;14.21;66.39
28628;BME280;15815;46.760;19.604;2022-09-13T05:56:58;100206.25;;;14.45;65.31
28628;BME280;15815;46.760;19.604;2022-09-13T05:59:23;100202.66;;;14.65;64.10
28628;BME280;15815;46.760;19.604;2022-09-13T06:01:49;100202.00;;;14.77;64.17
28628;BME280;15815;46.760;19.604;2022-09-13T06:04:14;100206.41;;;14.98;64.51
28628;BME280;15815;46.760;19.604;2022-09-13T06:06:39;100207.25;;;15.14;63.59
28628;BME280;15815;46.760;19.604;2022-09-13T06:09:05;100210.31;;;15.40;63.38
28628;BME280;15815;46.760;19.604;2022-09-13T06:11:33;100211.56;;;15.55;62.24
28628;BME280;15815;46.760;19.604;2022-09-13T06:13:59;100211.88;;;15.77;61.51
28628;BME280;15815;46.760;19.604;2022-09-13T06:16:25;100215.16;;;15.92;60.82
28628;BME280;15815;46.760;19.604;2022-09-13T06:18:50;100221.50;;;16.12;61.82
28628;BME280;15815;46.760;19.604;2022-09-13T06:21:18;100220.44;;;16.22;60.67
28628;BME280;15815;46.760;19.604;2022-09-13T06:23:49;100225.31;;;16.67;61.50
28628;BME280;15815;46.760;19.604;2022-09-13T06:26:20;100223.31;;;17.47;58.59
28628;BME280;15815;46.760;19.604;2022-09-13T06:28:47;100222.03;;;18.46;56.21
28628;BME280;15815;46.760;19.604;2022-09-13T06:31:14;100229.69;;;22.65;44.83
28628;BME280;15815;46.760;19.604;2022-09-13T06:33:41;100228.44;;;29.71;33.75
28628;BME280;15815;46.760;19.604;2022-09-13T06:36:12;100251.44;;;32.99;27.62
28628;BME280;15815;46.760;19.604;2022-09-13T06:38:39;100251.97;;;33.44;25.53
28628;BME280;15815;46.760;19.604;2022-09-13T06:41:08;100246.69;;;35.57;25.85
28628;BME280;15815;46.760;19.604;2022-09-13T06:43:36;100247.53;;;35.96;23.84
28628;BME280;15815;46.760;19.604;2022-09-13T06:46:04;100252.53;;;38.02;22.07
28628;BME280;15815;46.760;19.604;2022-09-13T06:48:34;100255.19;;;38.75;20.87
28628;BME280;15815;46.760;19.604;2022-09-13T06:51:01;100254.25;;;39.61;19.99
28628;BME280;15815;46.760;19.604;2022-09-13T06:53:27;100259.22;;;38.79;20.62
28628;BME280;15815;46.760;19.604;2022-09-13T06:56:03;100264.03;;;40.00;19.36
28628;BME280;15815;46.760;19.604;2022-09-13T06:58:29;100263.22;;;40.45;17.92
28628;BME280;15815;46.760;19.604;2022-09-13T07:01:14;100260.44;;;40.76;19.00
28628;BME280;15815;46.760;19.604;2022-09-13T07:03:51;100272.69;;;41.21;18.17
28628;BME280;15815;46.760;19.604;2022-09-13T07:06:22;100272.91;;;42.05;17.43
28628;BME280;15815;46.760;19.604;2022-09-13T07:08:49;100267.00;;;39.73;18.49
28628;BME280;15815;46.760;19.604;2022-09-13T07:11:16;100260.28;;;40.74;16.83
28628;BME280;15815;46.760;19.604;2022-09-13T07:13:47;100256.63;;;43.10;16.82
28628;BME280;15815;46.760;19.604;2022-09-13T07:16:13;100262.94;;;42.19;17.07
28628;BME280;15815;46.760;19.604;2022-09-13T07:18:38;100258.47;;;43.27;16.52
28628;BME280;15815;46.760;19.604;2022-09-13T07:21:06;100255.75;;;43.19;14.98
28628;BME280;15815;46.760;19.604;2022-09-13T07:23:33;100269.28;;;42.68;16.08
28628;BME280;15815;46.760;19.604;2022-09-13T07:25:59;100257.31;;;44.00;15.31
28628;BME280;15815;46.760;19.604;2022-09-13T07:33:30;100268.78;;;42.93;15.02
28628;BME280;15815;46.760;19.604;2022-09-13T07:35:56;100260.78;;;41.00;15.96
28628;BME280;15815;46.760;19.604;2022-09-13T07:38:22;100263.06;;;41.30;15.06
28628;BME280;15815;46.760;19.604;2022-09-13T07:40:55;100260.00;;;38.45;17.92
28628;BME280;15815;46.760;19.604;2022-09-13T07:43:21;100258.91;;;40.56;15.26
28628;BME280;15815;46.760;19.604;2022-09-13T07:45:46;100262.78;;;41.07;15.25
28628;BME280;15815;46.760;19.604;2022-09-13T07:48:12;100259.09;;;42.60;14.02
28628;BME280;15815;46.760;19.604;2022-09-13T07:50:37;100255.00;;;39.07;17.06
28628;BME280;15815;46.760;19.604;2022-09-13T07:53:02;100255.81;;;42.98;15.11
28628;BME280;15815;46.760;19.604;2022-09-13T07:55:28;100253.66;;;42.04;15.17
28628;BME280;15815;46.760;19.604;2022-09-13T07:57:54;100253.66;;;36.76;17.42
28628;BME280;15815;46.760;19.604;2022-09-13T08:00:19;100255.91;;;33.00;22.35
28628;BME280;15815;46.760;19.604;2022-09-13T08:02:45;100254.53;;;31.31;23.11
28628;BME280;15815;46.760;19.604;2022-09-13T08:05:10;100246.56;;;29.42;25.94
28628;BME280;15815;46.760;19.604;2022-09-13T08:07:35;100253.38;;;29.50;24.95
28628;BME280;15815;46.760;19.604;2022-09-13T08:10:01;100254.75;;;28.33;28.21
28628;BME280;15815;46.760;19.604;2022-09-13T08:12:26;100254.00;;;28.05;26.80
28628;BME280;15815;46.760;19.604;2022-09-13T08:14:51;100258.50;;;27.78;28.01
28628;BME280;15815;46.760;19.604;2022-09-13T08:17:16;100253.31;;;25.86;29.67
28628;BME280;15815;46.760;19.604;2022-09-13T08:19:42;100253.03;;;25.27;31.73
28628;BME280;15815;46.760;19.604;2022-09-13T08:22:07;100252.16;;;26.10;31.17
28628;BME280;15815;46.760;19.604;2022-09-13T08:24:32;100257.63;;;26.02;31.04
28628;BME280;15815;46.760;19.604;2022-09-13T08:26:58;100250.09;;;26.16;31.01
28628;BME280;15815;46.760;19.604;2022-09-13T08:29:23;100256.56;;;26.48;30.47
28628;BME280;15815;46.760;19.604;2022-09-13T08:31:49;100251.63;;;26.54;29.99
28628;BME280;15815;46.760;19.604;2022-09-13T08:34:15;100249.63;;;25.86;31.72
28628;BME280;15815;46.760;19.604;2022-09-13T08:36:41;100254.44;;;25.37;32.18
28628;BME280;15815;46.760;19.604;2022-09-13T08:39:07;100249.53;;;24.51;32.46
28628;BME280;15815;46.760;19.604;2022-09-13T08:44:14;100256.41;;;23.83;32.85
28628;BME280;15815;46.760;19.604;2022-09-13T08:46:44;100249.69;;;24.07;34.34
28628;BME280;15815;46.760;19.604;2022-09-13T08:49:26;100250.22;;;24.25;33.00
28628;BME280;15815;46.760;19.604;2022-09-13T08:51:55;100247.88;;;24.09;34.23
28628;BME280;15815;46.760;19.604;2022-09-13T08:54:22;100251.13;;;24.72;33.38
28628;BME280;15815;46.760;19.604;2022-09-13T08:59:52;100249.72;;;23.92;33.49
28628;BME280;15815;46.760;19.604;2022-09-13T09:05:28;100235.84;;;24.25;33.53
28628;BME280;15815;46.760;19.604;2022-09-13T09:08:02;100234.91;;;24.14;32.91
28628;BME280;15815;46.760;19.604;2022-09-13T09:10:31;100236.59;;;23.85;33.54
28628;BME280;15815;46.760;19.604;2022-09-13T09:13:02;100234.06;;;23.13;34.04
28628;BME280;15815;46.760;19.604;2022-09-13T09:15:34;100230.75;;;23.80;33.94
28628;BME280;15815;46.760;19.604;2022-09-13T09:18:09;100234.25;;;23.69;33.45
28628;BME280;15815;46.760;19.604;2022-09-13T09:20:43;100238.28;;;22.65;35.38
28628;BME280;15815;46.760;19.604;2022-09-13T09:23:22;100234.66;;;23.03;34.59
28628;BME280;15815;46.760;19.604;2022-09-13T09:25:55;100236.16;;;23.57;34.31
28628;BME280;15815;46.760;19.604;2022-09-13T09:28:21;100223.63;;;24.10;34.09
28628;BME280;15815;46.760;19.604;2022-09-13T09:30:56;100233.13;;;23.81;34.06
28628;BME280;15815;46.760;19.604;2022-09-13T09:33:55;100228.81;;;23.27;34.60
28628;BME280;15815;46.760;19.604;2022-09-13T09:36:39;100223.38;;;23.58;34.63
28628;BME280;15815;46.760;19.604;2022-09-13T09:39:13;100214.16;;;24.04;36.47
28628;BME280;15815;46.760;19.604;2022-09-13T09:41:40;100221.69;;;24.01;34.96
28628;BME280;15815;46.760;19.604;2022-09-13T09:44:15;100220.16;;;23.86;33.73
28628;BME280;15815;46.760;19.604;2022-09-13T09:46:42;100216.75;;;23.23;34.56
28628;BME280;15815;46.760;19.604;2022-09-13T09:52:08;100221.88;;;22.89;35.40
28628;BME280;15815;46.760;19.604;2022-09-13T09:54:35;100207.41;;;23.87;35.30
28628;BME280;15815;46.760;19.604;2022-09-13T09:57:02;100196.25;;;24.50;34.83
28628;BME280;15815;46.760;19.604;2022-09-13T09:59:30;100195.69;;;24.46;34.71
28628;BME280;15815;46.760;19.604;2022-09-13T10:01:57;100198.34;;;24.49;34.04
28628;BME280;15815;46.760;19.604;2022-09-13T10:04:23;100189.25;;;24.16;34.40
28628;BME280;15815;46.760;19.604;2022-09-13T10:06:51;100196.88;;;23.63;34.19
28628;BME280;15815;46.760;19.604;2022-09-13T10:09:31;100191.13;;;23.19;34.21
28628;BME280;15815;46.760;19.604;2022-09-13T10:11:58;100181.22;;;23.64;34.48
28628;BME280;15815;46.760;19.604;2022-09-13T10:17:24;100168.88;;;23.93;33.89
28628;BME280;15815;46.760;19.604;2022-09-13T10:19:58;100167.63;;;24.00;35.15
28628;BME280;15815;46.760;19.604;2022-09-13T10:22:28;100162.06;;;24.11;35.01
28628;BME280;15815;46.760;19.604;2022-09-13T10:24:54;100157.38;;;23.93;33.43
28628;BME280;15815;46.760;19.604;2022-09-13T10:29:54;100155.44;;;23.85;35.25
28628;BME280;15815;46.760;19.604;2022-09-13T10:32:24;100156.06;;;23.74;35.53
28628;BME280;15815;46.760;19.604;2022-09-13T10:34:50;100150.00;;;23.87;34.53
28628;BME280;15815;46.760;19.604;2022-09-13T10:37:28;100156.69;;;23.63;35.60
28628;BME280;15815;46.760;19.604;2022-09-13T10:42:24;100141.16;;;23.90;34.89
28628;BME280;15815;46.760;19.604;2022-09-13T10:45:17;100146.22;;;23.81;33.46
28628;BME280;15815;46.760;19.604;2022-09-13T10:47:47;100148.28;;;23.60;34.19
28628;BME280;15815;46.760;19.604;2022-09-13T10:50:26;100148.38;;;23.65;33.93
28628;BME280;15815;46.760;19.604;2022-09-13T10:52:56;100135.78;;;23.98;33.61
28628;BME280;15815;46.760;19.604;2022-09-13T10:55:36;100136.28;;;24.17;33.70
28628;BME280;15815;46.760;19.604;2022-09-13T11:00:39;100126.00;;;24.51;33.05
28628;BME280;15815;46.760;19.604;2022-09-13T11:05:44;100139.09;;;24.11;34.40
28628;BME280;15815;46.760;19.604;2022-09-13T11:08:26;100134.78;;;24.01;32.72
28628;BME280;15815;46.760;19.604;2022-09-13T11:13:44;100127.25;;;24.44;32.76
28628;BME280;15815;46.760;19.604;2022-09-13T11:16:21;100127.44;;;24.00;32.17
28628;BME280;15815;46.760;19.604;2022-09-13T11:24:02;100112.94;;;24.09;34.46
28628;BME280;15815;46.760;19.604;2022-09-13T11:29:29;100094.13;;;24.08;33.84
28628;BME280;15815;46.760;19.604;2022-09-13T11:42:55;100093.84;;;24.99;32.69
28628;BME280;15815;46.760;19.604;2022-09-13T11:45:31;100093.53;;;24.96;33.07
28628;BME280;15815;46.760;19.604;2022-09-13T11:48:28;100094.56;;;24.93;31.80
28628;BME280;15815;46.760;19.604;2022-09-13T11:54:17;100085.97;;;24.42;32.81
28628;BME280;15815;46.760;19.604;2022-09-13T11:56:49;100083.75;;;24.57;33.49
28628;BME280;15815;46.760;19.604;2022-09-13T11:59:39;100086.91;;;24.90;33.34
28628;BME280;15815;46.760;19.604;2022-09-13T12:04:59;100085.66;;;25.23;31.68
28628;BME280;15815;46.760;19.604;2022-09-13T12:07:33;100078.44;;;25.02;31.42
28628;BME280;15815;46.760;19.604;2022-09-13T12:10:16;100076.88;;;25.01;32.96
28628;BME280;15815;46.760;19.604;2022-09-13T12:12:45;100080.13;;;25.19;32.90
28628;BME280;15815;46.760;19.604;2022-09-13T12:15:36;100085.84;;;25.14;32.70
28628;BME280;15815;46.760;19.604;2022-09-13T12:20:34;100081.22;;;25.22;32.79
28628;BME280;15815;46.760;19.604;2022-09-13T12:23:02;100080.09;;;25.14;32.85
28628;BME280;15815;46.760;19.604;2022-09-13T12:25:57;100078.41;;;25.33;33.88
28628;BME280;15815;46.760;19.604;2022-09-13T12:31:17;100070.81;;;25.30;34.71
28628;BME280;15815;46.760;19.604;2022-09-13T12:33:45;100067.94;;;25.30;34.59
28628;BME280;15815;46.760;19.604;2022-09-13T12:36:18;100068.13;;;25.21;33.11
28628;BME280;15815;46.760;19.604;2022-09-13T12:47:36;100056.91;;;25.23;33.67
28628;BME280;15815;46.760;19.604;2022-09-13T12:59:23;100041.69;;;25.17;34.26
28628;BME280;15815;46.760;19.604;2022-09-13T13:01:52;100044.78;;;25.13;34.24
28628;BME280;15815;46.760;19.604;2022-09-13T13:04:24;100055.78;;;25.15;33.73
28628;BME280;15815;46.760;19.604;2022-09-13T13:07:02;100051.97;;;25.29;34.21
28628;BME280;15815;46.760;19.604;2022-09-13T13:09:41;100049.94;;;25.41;34.34
28628;BME280;15815;46.760;19.604;2022-09-13T13:12:23;100044.72;;;25.45;34.01
28628;BME280;15815;46.760;19.604;2022-09-13T13:14:50;100041.44;;;25.63;34.62
28628;BME280;15815;46.760;19.604;2022-09-13T13:26:08;100042.22;;;25.64;33.31
28628;BME280;15815;46.760;19.604;2022-09-13T13:33:59;100043.09;;;25.33;34.39
28628;BME280;15815;46.760;19.604;2022-09-13T13:36:30;100039.22;;;25.41;33.55
28628;BME280;15815;46.760;19.604;2022-09-13T13:39:00;100040.22;;;25.33;34.36
28628;BME280;15815;46.760;19.604;2022-09-13T13:46:54;100022.47;;;25.40;34.17
28628;BME280;15815;46.760;19.604;2022-09-13T14:02:30;100022.16;;;24.95;34.23
28628;BME280;15815;46.760;19.604;2022-09-13T14:13:37;100014.91;;;24.68;33.64
28628;BME280;15815;46.760;19.604;2022-09-13T14:16:24;100009.88;;;24.63;34.09
28628;BME280;15815;46.760;19.604;2022-09-13T14:19:22;100018.59;;;24.74;34.92
28628;BME280;15815;46.760;19.604;2022-09-13T14:25:22;100005.56;;;24.79;34.57
28628;BME280;15815;46.760;19.604;2022-09-13T14:27:50;100016.63;;;24.91;34.87
28628;BME280;15815;46.760;19.604;2022-09-13T14:30:19;100019.50;;;24.91;34.64
28628;BME280;15815;46.760;19.604;2022-09-13T14:32:56;100013.13;;;24.76;34.46
28628;BME280;15815;46.760;19.604;2022-09-13T14:37:55;100008.56;;;24.64;35.35
28628;BME280;15815;46.760;19.604;2022-09-13T14:40:24;100004.31;;;24.54;34.86
28628;BME280;15815;46.760;19.604;2022-09-13T14:42:51;100005.06;;;24.49;34.98
28628;BME280;15815;46.760;19.604;2022-09-13T14:45:21;100003.25;;;24.51;35.49
28628;BME280;15815;46.760;19.604;2022-09-13T14:48:02;100013.22;;;24.56;35.04
28628;BME280;15815;46.760;19.604;2022-09-13T14:50:37;100003.31;;;24.57;35.17
28628;BME280;15815;46.760;19.604;2022-09-13T14:53:06;100004.56;;;24.50;36.29
28628;BME280;15815;46.760;19.604;2022-09-13T14:55:39;99992.81;;;24.54;35.51
28628;BME280;15815;46.760;19.604;2022-09-13T14:58:18;99990.16;;;24.45;35.43
28628;BME280;15815;46.760;19.604;2022-09-13T15:00:54;99990.16;;;24.45;35.37
28628;BME280;15815;46.760;19.604;2022-09-13T15:03:23;99996.31;;;24.38;35.74
28628;BME280;15815;46.760;19.604;2022-09-13T15:05:54;99988.09;;;24.25;35.97
28628;BME280;15815;46.760;19.604;2022-09-13T15:11:04;99972.25;;;24.29;35.91
28628;BME280;15815;46.760;19.604;2022-09-13T15:13:31;99980.34;;;24.31;36.90
28628;BME280;15815;46.760;19.604;2022-09-13T15:15:57;99980.53;;;24.27;36.13
28628;BME280;15815;46.760;19.604;2022-09-13T15:18:30;99989.13;;;24.22;35.97
28628;BME280;15815;46.760;19.604;2022-09-13T15:23:38;99975.91;;;24.10;36.28
28628;BME280;15815;46.760;19.604;2022-09-13T15:26:09;99983.75;;;24.09;35.92
28628;BME280;15815;46.760;19.604;2022-09-13T15:28:50;99986.84;;;24.05;36.67
28628;BME280;15815;46.760;19.604;2022-09-13T15:31:31;99983.94;;;24.00;36.76
28628;BME280;15815;46.760;19.604;2022-09-13T15:34:32;99980.22;;;23.94;36.40
28628;BME280;15815;46.760;19.604;2022-09-13T15:37:08;99967.72;;;23.97;36.58
28628;BME280;15815;46.760;19.604;2022-09-13T15:39:45;99979.19;;;23.97;36.73
28628;BME280;15815;46.760;19.604;2022-09-13T15:42:12;99964.28;;;23.93;36.67
28628;BME280;15815;46.760;19.604;2022-09-13T15:44:37;99962.44;;;23.90;36.55
28628;BME280;15815;46.760;19.604;2022-09-13T15:47:09;99960.28;;;23.85;36.33
28628;BME280;15815;46.760;19.604;2022-09-13T15:49:37;99956.50;;;23.73;37.38